Time;durP1;ratioP1;P1;durP2;ratioP2;P2;SDS_P1;SDS_P2;PMS_P1;PMS_P2;Temp;Humidity;BMP_temperature;BMP_pressure;BME280_temperature;BME280_humidity;BME280_pressure;Samples;Min_cycle;Max_cycle;Signal;HPM_P1;HPM_P2
2021/01/25 14:25:02;;;;;;;8.57;6.33;;;4.90;99.90;;;;;;6261902;22;20165;-81
2021/01/25 14:27:55;;;;;;;7.50;5.60;;;4.80;99.90;;;;;;6252297;23;20191;-84
2021/01/25 14:30:31;;;;;;;8.57;6.53;;;4.80;99.90;;;;;;6229824;23;20179;-84
2021/01/25 14:33:12;;;;;;;10.73;8.00;;;4.80;99.90;;;;;;6232781;23;20162;-85
2021/01/25 14:39:11;;;;;;;12.03;7.83;;;4.50;99.90;;;;;;6232031;23;20181;-84
2021/01/25 14:41:43;;;;;;;11.93;10.20;;;4.40;99.90;;;;;;6260472;22;20202;-85
2021/01/25 14:44:20;;;;;;;15.40;10.80;;;4.30;99.90;;;;;;6234316;23;20193;-85
2021/01/25 15:23:13;;;;;;;14.90;13.07;;;3.70;99.90;;;;;;6219768;23;20564;-83
2021/01/25 15:25:41;;;;;;;16.63;13.13;;;3.70;99.90;;;;;;6164098;23;20207;-85
2021/01/25 15:28:09;;;;;;;16.67;13.27;;;3.70;99.90;;;;;;6200689;23;20198;-82
2021/01/25 15:30:36;;;;;;;19.07;13.10;;;3.70;99.90;;;;;;6180747;23;20262;-83
2021/01/25 15:33:03;;;;;;;21.50;13.82;;;3.60;99.90;;;;;;6204964;23;20174;-83
2021/01/25 15:38:50;;;;;;;19.60;13.60;;;3.50;99.90;;;;;;6139670;23;20171;-82
2021/01/25 15:41:20;;;;;;;17.13;12.83;;;3.40;99.90;;;;;;6115704;23;20183;-83
2021/01/25 15:43:47;;;;;;;16.87;12.70;;;3.40;99.90;;;;;;6114625;23;20485;-83
2021/01/25 15:46:39;;;;;;;16.50;12.03;;;3.40;99.90;;;;;;6118120;23;20267;-83
2021/01/25 15:49:13;;;;;;;18.83;13.47;;;3.30;99.90;;;;;;6117365;23;20654;-85
2021/01/25 15:51:40;;;;;;;16.53;13.10;;;3.40;99.90;;;;;;6140800;23;20180;-84
2021/01/25 15:54:08;;;;;;;18.48;14.15;;;3.40;99.90;;;;;;6166218;23;20157;-84
2021/01/25 15:56:36;;;;;;;20.27;12.77;;;3.30;99.90;;;;;;6113660;23;20196;-83
2021/01/25 15:59:03;;;;;;;16.03;13.00;;;3.40;99.90;;;;;;6137881;23;20176;-84
2021/01/25 16:01:31;;;;;;;19.53;12.77;;;3.20;99.90;;;;;;6136724;23;20224;-85
2021/01/25 16:03:58;;;;;;;22.43;13.40;;;3.10;99.90;;;;;;6112338;23;20260;-84
2021/01/25 16:06:25;;;;;;;14.73;11.83;;;3.20;99.90;;;;;;6163833;23;20295;-84
2021/01/25 16:08:52;;;;;;;18.50;14.23;;;3.10;99.90;;;;;;6162436;23;20173;-85
2021/01/25 16:11:28;;;;;;;15.70;13.23;;;2.90;99.90;;;;;;6138210;23;20173;-84
2021/01/25 16:14:28;;;;;;;18.90;12.43;;;2.80;99.90;;;;;;6125489;23;20510;-82
2021/01/25 16:16:56;;;;;;;17.53;12.37;;;2.60;99.90;;;;;;6113447;23;20197;-84
2021/01/25 16:19:23;;;;;;;18.23;12.87;;;2.50;99.90;;;;;;6116670;23;20180;-84
2021/01/25 16:21:50;;;;;;;22.33;14.47;;;2.50;99.90;;;;;;6149030;23;20193;-83
2021/01/25 16:24:17;;;;;;;21.73;15.33;;;2.40;99.90;;;;;;6150483;23;20169;-84
2021/01/25 16:26:45;;;;;;;20.97;14.67;;;2.50;99.90;;;;;;6152194;23;20203;-84
2021/01/25 16:29:14;;;;;;;18.63;14.50;;;2.30;99.90;;;;;;6149647;23;20161;-83
2021/01/25 16:31:50;;;;;;;20.00;14.90;;;2.30;99.90;;;;;;6143899;23;20160;-82
2021/01/25 16:34:16;;;;;;;19.47;15.53;;;2.40;99.90;;;;;;6133156;23;20176;-83
2021/01/25 16:36:43;;;;;;;22.87;16.27;;;2.20;99.90;;;;;;6135791;23;20216;-84
2021/01/25 16:39:10;;;;;;;27.50;17.83;;;2.40;99.90;;;;;;6147425;23;20173;-82
2021/01/25 16:41:36;;;;;;;23.50;16.27;;;2.20;99.90;;;;;;6150567;23;20195;-80
2021/01/25 16:44:32;;;;;;;21.70;14.93;;;2.20;99.90;;;;;;6149905;23;20160;-83
2021/01/25 16:46:58;;;;;;;17.87;13.50;;;2.10;99.90;;;;;;6135729;23;20201;-82
2021/01/25 16:49:26;;;;;;;15.60;12.47;;;2.20;99.90;;;;;;6132978;23;20185;-83
2021/01/25 16:51:53;;;;;;;21.60;11.80;;;2.10;99.90;;;;;;6135518;23;20174;-83
2021/01/25 16:54:20;;;;;;;16.97;10.80;;;2.10;99.90;;;;;;6112034;23;20170;-83
2021/01/25 16:56:50;;;;;;;14.73;10.43;;;2.30;99.90;;;;;;6134943;23;20232;-83
2021/01/25 16:59:17;;;;;;;13.27;11.13;;;2.10;99.90;;;;;;6135083;23;20161;-83
2021/01/25 17:01:45;;;;;;;12.13;10.17;;;2.20;99.90;;;;;;6109881;23;20204;-83
2021/01/25 17:04:12;;;;;;;17.43;11.23;;;1.90;99.90;;;;;;6109249;23;20208;-83
2021/01/25 17:06:40;;;;;;;13.27;9.87;;;2.00;99.90;;;;;;6134004;23;20674;-83
2021/01/25 17:09:07;;;;;;;12.70;9.33;;;2.10;99.90;;;;;;6108824;23;20180;-83
2021/01/25 17:11:38;;;;;;;14.23;10.77;;;2.00;99.90;;;;;;6135384;23;20268;-83
2021/01/25 17:14:06;;;;;;;18.70;10.00;;;2.00;99.90;;;;;;6109188;23;20166;-83
2021/01/25 17:16:33;;;;;;;16.87;10.10;;;1.80;99.90;;;;;;6134102;23;20646;-84
2021/01/25 17:19:01;;;;;;;18.50;10.70;;;1.80;99.90;;;;;;6134761;23;20250;-83
2021/01/25 17:21:29;;;;;;;23.60;11.60;;;1.80;99.90;;;;;;6137425;23;20240;-83
2021/01/25 17:23:56;;;;;;;13.60;10.33;;;1.80;99.90;;;;;;6145926;23;20168;-86
2021/01/25 17:26:23;;;;;;;14.13;12.53;;;1.70;99.90;;;;;;6126219;23;20205;-85
2021/01/25 17:28:53;;;;;;;17.63;11.70;;;1.60;99.90;;;;;;6116854;23;20171;-82
2021/01/25 17:31:21;;;;;;;14.53;11.80;;;1.50;99.90;;;;;;6105735;23;20262;-82
2021/01/25 17:33:50;;;;;;;15.77;13.60;;;1.80;99.90;;;;;;6106578;23;20698;-82
2021/01/25 17:36:19;;;;;;;24.83;15.30;;;1.60;99.90;;;;;;6131293;23;20207;-82
2021/01/25 17:38:49;;;;;;;28.53;18.43;;;1.70;99.90;;;;;;6109224;23;20180;-82
2021/01/25 17:41:20;;;;;;;25.20;19.60;;;1.60;99.90;;;;;;6112958;23;20184;-81
2021/01/25 17:43:47;;;;;;;24.53;17.83;;;1.70;99.90;;;;;;6139279;23;20180;-82
2021/01/25 17:46:15;;;;;;;20.50;15.40;;;1.40;99.90;;;;;;6108812;23;20197;-82
2021/01/25 17:48:42;;;;;;;17.47;14.23;;;1.50;99.90;;;;;;6134371;23;20211;-82
2021/01/25 17:51:09;;;;;;;18.17;14.93;;;1.60;99.90;;;;;;6107814;23;20552;-83
2021/01/25 17:53:37;;;;;;;18.20;13.10;;;1.60;99.90;;;;;;6135014;23;20180;-81
2021/01/25 17:56:05;;;;;;;23.73;14.43;;;1.50;99.90;;;;;;6118153;23;20207;-82
2021/01/25 17:58:32;;;;;;;18.73;14.43;;;1.30;99.90;;;;;;6143203;23;20176;-82
2021/01/25 18:00:59;;;;;;;22.53;14.93;;;1.50;99.90;;;;;;6112702;23;20276;-80
2021/01/25 18:03:26;;;;;;;21.53;13.77;;;1.30;99.90;;;;;;6123832;23;20211;-77
2021/01/25 18:05:53;;;;;;;27.53;15.07;;;1.30;99.90;;;;;;6123861;23;20209;-78
2021/01/25 18:08:20;;;;;;;16.53;13.70;;;1.40;99.90;;;;;;6125972;23;20245;-77
2021/01/25 18:10:48;;;;;;;16.17;13.30;;;1.20;99.90;;;;;;6122668;23;20531;-77
2021/01/25 18:13:18;;;;;;;18.57;14.17;;;1.50;99.90;;;;;;6123990;23;20650;-80
2021/01/25 18:15:47;;;;;;;20.00;14.73;;;1.20;99.90;;;;;;6137996;23;20176;-84
2021/01/25 18:18:14;;;;;;;18.13;13.50;;;1.10;99.90;;;;;;6138222;23;20173;-84
2021/01/25 18:20:41;;;;;;;19.77;13.63;;;1.10;99.90;;;;;;6114839;23;20169;-83
2021/01/25 18:23:08;;;;;;;21.60;14.67;;;1.00;99.90;;;;;;6136349;23;20193;-82
2021/01/25 18:25:35;;;;;;;21.13;16.33;;;1.00;99.90;;;;;;6113116;23;20181;-83
2021/01/25 18:28:04;;;;;;;20.23;15.03;;;1.00;99.90;;;;;;6112697;23;20598;-82
2021/01/25 18:30:34;;;;;;;24.57;15.27;;;1.10;99.90;;;;;;6112377;23;20184;-82
2021/01/25 18:33:09;;;;;;;25.30;16.98;;;1.10;99.90;;;;;;6135112;23;20694;-82
2021/01/25 18:35:38;;;;;;;23.10;16.87;;;1.10;99.90;;;;;;6132707;23;20169;-82
2021/01/25 18:38:09;;;;;;;23.07;16.33;;;1.10;99.90;;;;;;6130295;23;20778;-83
2021/01/25 18:40:36;;;;;;;18.13;13.83;;;1.10;99.90;;;;;;6132010;23;20165;-82
2021/01/25 18:43:05;;;;;;;19.40;14.07;;;1.00;99.90;;;;;;6111594;23;20196;-81
2021/01/25 18:45:35;;;;;;;17.40;14.27;;;1.00;99.90;;;;;;6116923;23;20229;-81
2021/01/25 18:48:03;;;;;;;19.33;14.70;;;1.00;99.90;;;;;;6120492;23;20185;-82
2021/01/25 18:50:30;;;;;;;18.73;13.33;;;1.10;99.90;;;;;;6135942;23;20193;-81
2021/01/25 18:52:57;;;;;;;17.03;14.37;;;1.10;99.90;;;;;;6114953;23;20170;-82
2021/01/25 18:55:31;;;;;;;20.47;14.03;;;1.20;99.90;;;;;;6144366;23;20196;-83
2021/01/25 19:09:45;;;;;;;22.37;15.77;;;1.00;99.90;;;;;;5965206;23;20176;-82
2021/01/25 19:12:14;;;;;;;27.27;16.27;;;1.00;99.90;;;;;;6041536;23;20176;-82
2021/01/25 19:15:05;;;;;;;20.30;15.40;;;1.30;99.90;;;;;;6146640;23;20181;-82
2021/01/25 19:17:35;;;;;;;24.07;16.30;;;1.30;99.90;;;;;;6142010;23;20201;-82
2021/01/25 19:20:34;;;;;;;19.73;15.57;;;1.50;99.90;;;;;;6138408;23;20184;-81
2021/01/25 19:30:25;;;;;;;18.40;15.53;;;1.30;99.90;;;;;;5990938;23;20212;-82
2021/01/25 19:32:55;;;;;;;21.63;16.07;;;1.20;99.90;;;;;;6133819;23;20158;-81
2021/01/25 19:35:26;;;;;;;21.13;16.23;;;1.20;99.90;;;;;;6129884;23;20166;-81
2021/01/25 19:37:53;;;;;;;20.77;15.13;;;1.20;99.90;;;;;;6128459;23;20181;-82
2021/01/25 19:40:23;;;;;;;25.23;17.57;;;1.40;99.90;;;;;;6128629;23;20244;-81
2021/01/25 19:42:51;;;;;;;22.23;17.13;;;1.30;99.90;;;;;;6126846;23;20185;-81
2021/01/25 19:45:23;;;;;;;21.93;17.00;;;1.20;99.90;;;;;;6126167;23;20199;-81
2021/01/25 19:47:49;;;;;;;22.93;17.33;;;1.20;99.90;;;;;;6102712;23;20603;-82
2021/01/25 19:50:17;;;;;;;19.83;15.73;;;1.10;99.90;;;;;;6102789;23;20219;-82
2021/01/25 19:52:44;;;;;;;25.57;19.90;;;1.20;99.90;;;;;;6104489;23;20193;-82
2021/01/25 19:55:16;;;;;;;20.47;17.27;;;1.20;99.90;;;;;;6102935;23;20507;-81
2021/01/25 19:57:45;;;;;;;25.85;17.00;;;1.20;99.90;;;;;;6128955;23;20204;-82
2021/01/25 20:00:14;;;;;;;24.93;18.03;;;1.20;99.90;;;;;;6132832;23;20166;-81
2021/01/25 20:02:40;;;;;;;26.10;17.57;;;1.20;99.90;;;;;;6105124;23;20280;-80
2021/01/25 20:05:08;;;;;;;24.33;17.87;;;1.20;99.90;;;;;;6131033;23;20165;-82
2021/01/25 20:07:35;;;;;;;24.07;17.13;;;1.10;99.90;;;;;;6129040;23;20202;-82
2021/01/25 20:10:03;;;;;;;23.37;16.30;;;1.30;99.90;;;;;;6107759;23;20165;-82
2021/01/25 20:12:31;;;;;;;25.40;16.87;;;1.30;99.90;;;;;;6132080;23;20169;-81
2021/01/25 20:14:58;;;;;;;25.17;16.70;;;1.30;99.90;;;;;;6129297;23;20723;-82
2021/01/25 20:17:26;;;;;;;27.40;18.07;;;1.30;99.90;;;;;;6130315;23;20258;-82
2021/01/25 20:19:54;;;;;;;21.07;17.07;;;1.40;99.90;;;;;;6105382;23;20158;-82
2021/01/25 20:22:20;;;;;;;20.77;18.37;;;1.30;99.90;;;;;;6130699;23;20268;-81
2021/01/25 20:24:47;;;;;;;30.33;18.13;;;1.30;99.90;;;;;;6130126;23;20686;-83
2021/01/25 20:27:15;;;;;;;26.33;19.47;;;1.40;99.90;;;;;;6129145;23;20265;-82
2021/01/25 20:29:50;;;;;;;20.73;16.80;;;1.40;99.90;;;;;;6109491;23;20169;-81
2021/01/25 20:32:41;;;;;;;25.90;18.47;;;1.40;99.90;;;;;;6117087;23;20169;-80
2021/01/25 20:35:14;;;;;;;20.40;15.70;;;1.60;99.90;;;;;;6131882;23;20172;-82
2021/01/25 20:37:42;;;;;;;20.07;16.53;;;1.50;99.90;;;;;;6137934;23;20204;-82
2021/01/25 20:43:26;;;;;;;25.03;18.13;;;1.60;99.90;;;;;;6136037;23;20196;-80
2021/01/25 20:48:58;;;;;;;23.53;19.00;;;1.20;99.90;;;;;;6143524;23;20179;-82
2021/01/25 20:51:26;;;;;;;25.80;19.77;;;1.20;99.90;;;;;;6142530;23;20572;-84
2021/01/25 20:53:53;;;;;;;30.77;20.70;;;1.40;99.90;;;;;;6124043;23;20172;-81
2021/01/25 20:56:21;;;;;;;28.85;21.55;;;1.40;99.90;;;;;;6113595;23;20260;-82
2021/01/25 20:58:53;;;;;;;29.43;21.33;;;1.20;99.90;;;;;;6110883;23;20559;-81
2021/01/25 21:01:25;;;;;;;23.37;19.63;;;1.20;99.90;;;;;;6109981;23;20499;-82
2021/01/25 21:03:53;;;;;;;26.23;19.90;;;1.00;99.90;;;;;;6109110;23;20197;-81
2021/01/25 21:06:22;;;;;;;29.83;21.87;;;1.10;99.90;;;;;;6108443;23;20193;-81
2021/01/25 21:09:00;;;;;;;26.70;20.80;;;1.20;99.90;;;;;;6135160;23;20631;-81
2021/01/25 21:11:30;;;;;;;28.57;22.50;;;1.00;99.90;;;;;;6149205;23;20154;-84
2021/01/25 21:13:57;;;;;;;32.57;22.93;;;1.00;99.90;;;;;;6153095;23;20210;-83
2021/01/25 21:16:27;;;;;;;28.20;22.10;;;1.00;99.90;;;;;;6143022;23;20193;-82
2021/01/25 21:18:56;;;;;;;30.17;22.07;;;1.30;99.90;;;;;;6144392;23;20168;-83
2021/01/25 21:21:32;;;;;;;26.57;22.63;;;1.20;99.90;;;;;;6120352;23;20168;-81
2021/01/25 21:23:59;;;;;;;27.47;21.27;;;1.30;99.90;;;;;;6118302;23;20204;-83
2021/01/25 21:27:07;;;;;;;28.43;21.23;;;1.30;99.90;;;;;;6140849;23;20220;-80
2021/01/25 21:29:36;;;;;;;31.93;23.60;;;1.10;99.90;;;;;;6135935;23;20308;-79
2021/01/25 21:32:04;;;;;;;28.10;21.87;;;1.00;99.90;;;;;;6109098;23;20211;-82
2021/01/25 21:34:31;;;;;;;29.83;23.27;;;1.00;99.90;;;;;;6105757;23;20223;-75
2021/01/25 21:36:58;;;;;;;30.60;22.00;;;1.00;99.90;;;;;;6123322;23;20201;-75
2021/01/25 21:39:28;;;;;;;31.53;22.53;;;1.00;99.90;;;;;;6123507;23;20477;-74
2021/01/25 21:41:55;;;;;;;30.83;23.00;;;1.10;99.90;;;;;;6125614;23;20158;-75
2021/01/25 21:44:23;;;;;;;32.70;24.23;;;1.20;99.90;;;;;;6123181;23;20509;-81
2021/01/25 21:46:51;;;;;;;25.97;22.00;;;1.20;99.90;;;;;;6131759;23;20197;-82
2021/01/25 21:52:47;;;;;;;28.60;21.60;;;1.20;99.90;;;;;;6121536;23;20176;-81
2021/01/25 21:55:19;;;;;;;29.23;23.87;;;1.30;99.90;;;;;;6119867;23;20185;-81
2021/01/25 21:58:27;;;;;;;26.43;21.83;;;1.40;99.90;;;;;;6125411;23;20174;-82
2021/01/25 22:01:05;;;;;;;36.10;21.17;;;1.20;99.90;;;;;;6147562;23;20158;-83
2021/01/25 22:04:26;;;;;;;26.60;20.30;;;1.40;99.90;;;;;;6152076;23;20180;-81
2021/01/25 22:07:33;;;;;;;;;;;;;;;;;;;;;
2021/01/25 22:10:30;;;;;;;35.50;24.47;;;1.60;99.90;;;;;;6123673;23;20179;-81
2021/01/25 22:13:09;;;;;;;26.07;21.83;;;1.30;99.90;;;;;;6112924;23;20565;-81
2021/01/25 22:15:47;;;;;;;25.50;21.53;;;1.40;99.90;;;;;;6133856;23;20221;-80
2021/01/25 22:22:00;;;;;;;28.75;20.83;;;1.50;99.90;;;;;;6127880;23;20610;-79
2021/01/25 22:24:43;;;;;;;27.20;20.70;;;1.40;99.90;;;;;;6127095;23;20178;-80
2021/01/25 22:27:29;;;;;;;28.87;21.97;;;1.40;99.90;;;;;;6132208;23;20209;-80
2021/01/25 22:33:29;;;;;;;25.53;20.63;;;1.30;99.90;;;;;;6107169;23;20666;-80
2021/01/25 22:36:06;;;;;;;32.47;24.47;;;1.20;99.90;;;;;;6137426;23;20222;-80
2021/01/25 22:38:43;;;;;;;26.70;21.33;;;1.30;99.90;;;;;;6165917;23;20695;-80
2021/01/25 22:41:21;;;;;;;27.67;23.00;;;1.20;99.90;;;;;;6141521;23;20157;-81
2021/01/25 22:43:54;;;;;;;27.23;22.07;;;1.30;99.90;;;;;;6166248;23;20235;-81
2021/01/25 22:46:33;;;;;;;28.77;22.17;;;1.30;99.90;;;;;;6171750;23;20192;-80
2021/01/25 22:49:09;;;;;;;29.93;22.83;;;1.30;99.90;;;;;;6162820;23;20164;-80
2021/01/25 22:51:46;;;;;;;30.17;22.17;;;1.30;99.90;;;;;;6117168;23;20176;-82
2021/01/25 22:54:13;;;;;;;30.63;24.65;;;1.30;99.90;;;;;;6166722;23;20191;-79
2021/01/25 22:56:40;;;;;;;33.63;23.13;;;1.30;99.90;;;;;;6167437;23;20196;-80
2021/01/25 22:59:15;;;;;;;26.83;23.20;;;1.20;99.90;;;;;;6167144;23;20169;-81
2021/01/25 23:01:45;;;;;;;38.23;25.83;;;1.30;99.90;;;;;;6142351;23;20259;-81
2021/01/25 23:04:12;;;;;;;29.00;24.63;;;1.20;99.90;;;;;;6165126;23;20536;-81
2021/01/25 23:06:40;;;;;;;34.30;26.00;;;1.10;99.90;;;;;;6139343;23;20247;-81
2021/01/25 23:09:07;;;;;;;28.93;24.67;;;1.00;99.90;;;;;;6139963;23;20189;-80
2021/01/25 23:11:34;;;;;;;31.57;25.63;;;1.10;99.90;;;;;;6165103;23;20374;-80
2021/01/25 23:14:01;;;;;;;33.33;26.83;;;1.20;99.90;;;;;;6138359;23;20165;-80
2021/01/25 23:16:34;;;;;;;31.87;25.27;;;1.30;99.90;;;;;;6163324;23;20659;-80
2021/01/25 23:19:15;;;;;;;30.53;25.73;;;1.50;99.90;;;;;;6165074;23;20681;-80
2021/01/25 23:21:44;;;;;;;36.35;26.33;;;1.60;99.90;;;;;;6154632;23;20167;-80
2021/01/25 23:24:12;;;;;;;33.87;28.53;;;1.40;99.90;;;;;;6153997;23;20207;-80
2021/01/25 23:26:40;;;;;;;46.53;29.83;;;1.30;99.90;;;;;;6159120;23;20199;-81
2021/01/25 23:29:12;;;;;;;34.47;29.37;;;1.40;99.90;;;;;;6160256;23;20172;-81
2021/01/25 23:31:40;;;;;;;43.70;30.63;;;1.40;99.90;;;;;;6162798;23;20169;-81
2021/01/25 23:34:08;;;;;;;38.37;28.30;;;1.50;99.90;;;;;;6160179;23;20183;-81
2021/01/25 23:36:36;;;;;;;36.17;30.60;;;1.50;99.90;;;;;;6160335;23;20208;-80
2021/01/25 23:39:03;;;;;;;43.03;30.83;;;1.50;99.90;;;;;;6142032;23;20176;-81
2021/01/25 23:41:31;;;;;;;40.47;31.13;;;1.50;99.90;;;;;;6169909;23;20185;-81
2021/01/25 23:43:58;;;;;;;44.00;34.97;;;1.40;99.90;;;;;;6170028;23;20192;-82
2021/01/25 23:46:25;;;;;;;41.77;33.30;;;1.50;99.90;;;;;;6172033;23;20193;-81
2021/01/25 23:48:53;;;;;;;49.00;35.13;;;1.60;99.90;;;;;;6172649;23;20147;-82
2021/01/25 23:51:21;;;;;;;39.93;32.00;;;1.50;99.90;;;;;;6147877;23;20165;-81
2021/01/25 23:53:49;;;;;;;39.57;33.63;;;1.50;99.90;;;;;;6169248;23;20160;-81
2021/01/25 23:56:20;;;;;;;42.50;32.43;;;1.40;99.90;;;;;;6141642;23;20254;-82
2021/01/25 23:58:47;;;;;;;41.50;33.40;;;1.40;99.90;;;;;;6168386;23;20183;-80
